Stations météo

réclame
Mon MeteoGroup
Luchon/SA, France (7724): Température de l'air & dewpoint: 14.09.2020 20:00:00 - 20.09.2020 20:00:00 (CEST)Luchon/SA, France (7724): Vitesse du vent & gusts: 14.09.2020 20:00:00 - 20.09.2020 20:00:00 (CEST)Luchon/SA, France (7724): Direction du vent: 14.09.2020 20:00:00 - 20.09.2020 20:00:00 (CEST)Luchon/SA, France (7724): Quantités de précipitations: 14.09.2020 20:00:00 - 20.09.2020 20:00:00 (CEST)
Date & Time tt [°C] td [°C] ff [km/h] ff [knt] fx [km/h] fx [knt] dd rr [mm]
20.09.2020 20:00:00 18,5 14,6 10 5 23 12 N 0,0
20.09.2020 19:00:00 20,3 14,0 8 4 23 13 N 0,0
20.09.2020 18:00:00 21,5 12,9 11 6 25 14 N 0,0
20.09.2020 17:00:00 21,9 13,0 10 6 29 16 N 0,0
20.09.2020 16:00:00 - - - - - - - -
20.09.2020 15:00:00 22,2 13,3 18 10 35 19 N 0,0
20.09.2020 14:00:00 22,6 13,9 19 10 32 18 N 0,0
20.09.2020 13:00:00 21,9 14,5 5 3 13 7 NE 0,0
20.09.2020 12:00:00 20,5 13,7 3 1 10 5 NE 0,0
20.09.2020 11:00:00 17,5 13,2 4 2 9 5 SSE 0,0
20.09.2020 10:00:00 - - - - - - - -
20.09.2020 09:00:00 11,1 11,1 0 0 6 4 N 0,0
20.09.2020 08:00:00 11,2 11,2 0 0 5 3 N 0,0
20.09.2020 07:00:00 12,3 11,8 3 2 10 6 N 0,0
20.09.2020 06:00:00 13,2 12,7 3 2 7 4 WSW 0,0
20.09.2020 05:00:00 12,9 12,7 3 1 10 6 S 0,0
20.09.2020 04:00:00 12,3 12,1 2 1 7 4 N 0,0
20.09.2020 03:00:00 12,8 12,5 0 0 8 4 N 0,0
20.09.2020 02:00:00 13,3 12,8 2 1 9 5 ESE 0,0
20.09.2020 01:00:00 13,4 12,9 2 1 6 3 SSE 0,0
20.09.2020 00:00:00 13,3 12,8 2 1 6 3 SE 0,0
19.09.2020 23:00:00 15,1 14,1 0 0 8 4 N 0,0
19.09.2020 22:00:00 16,1 14,8 3 2 17 9 WSW 0,0
19.09.2020 21:00:00 16,9 13,8 6 3 17 9 S 0,0
19.09.2020 20:00:00 17,3 14,9 6 4 16 9 E 0,0
19.09.2020 19:00:00 19,7 16,3 4 2 14 8 NNW 0,0
19.09.2020 18:00:00 20,3 16,7 8 4 16 8 S 0,0
19.09.2020 17:00:00 21,4 16,1 3 1 16 8 SW 0,0
19.09.2020 16:00:00 20,8 16,6 3 1 9 5 W 0,0
19.09.2020 15:00:00 19,8 15,0 3 2 9 5 NNE 0,0
19.09.2020 14:00:00 17,9 15,2 4 2 11 6 N 0,0
19.09.2020 13:00:00 17,0 15,0 5 3 11 6 SSE 0,0
19.09.2020 12:00:00 16,1 14,8 3 2 14 7 ENE 0,0
19.09.2020 11:00:00 15,3 14,5 4 2 8 5 SSE 0,4
19.09.2020 10:00:00 14,9 14,6 5 3 11 6 NNE 1,8
19.09.2020 09:00:00 14,7 14,4 3 1 17 9 S 1,8
19.09.2020 08:00:00 14,7 14,5 6 3 17 9 WSW 2,4
19.09.2020 07:00:00 14,6 14,4 3 2 14 7 SE 0,0
19.09.2020 06:00:00 14,8 14,6 4 2 8 5 S 0,0
19.09.2020 05:00:00 14,9 14,7 6 3 11 6 E 0,0
19.09.2020 04:00:00 15,3 15,1 4 2 10 5 S 0,2
19.09.2020 03:00:00 15,6 15,3 3 2 12 7 NNE 0,6
19.09.2020 02:00:00 15,9 15,6 6 3 16 8 SE 0,2
19.09.2020 01:00:00 15,9 15,7 4 2 10 5 SE 0,2
19.09.2020 00:00:00 16,6 16,3 0 0 14 8 N 0,8
18.09.2020 23:00:00 16,8 16,3 5 3 14 8 NNE 0,4
18.09.2020 22:00:00 - - - - - - - -
18.09.2020 21:00:00 17,3 16,5 4 2 14 8 NE 0,2
18.09.2020 20:00:00 18,3 15,7 6 4 17 9 SSE 0,4
18.09.2020 19:00:00 21,6 15,4 6 3 16 9 E 0,0
18.09.2020 18:00:00 23,0 14,0 8 4 25 14 S 0,0
18.09.2020 17:00:00 23,4 15,7 6 3 23 12 S 0,0
18.09.2020 16:00:00 22,9 15,5 12 7 35 19 S 0,0
18.09.2020 15:00:00 23,5 15,3 15 8 33 18 SSW 0,0
18.09.2020 14:00:00 25,9 13,4 13 7 41 22 SSW 0,0
18.09.2020 13:00:00 26,7 14,1 21 12 50 27 S 0,0
18.09.2020 12:00:00 21,4 15,5 4 2 14 7 NNE 0,0
18.09.2020 11:00:00 21,2 15,3 4 2 17 9 SE 0,0
18.09.2020 10:00:00 21,8 13,9 6 4 27 15 E 0,0
18.09.2020 09:00:00 20,0 13,0 10 5 24 13 S 0,0
18.09.2020 08:00:00 19,4 12,4 9 5 18 10 SE 0,0
18.09.2020 07:00:00 19,4 11,9 6 4 21 12 SE 0,0
18.09.2020 06:00:00 17,9 11,7 9 5 17 9 S 0,0
18.09.2020 05:00:00 18,6 10,9 4 2 20 11 SSE 0,0
18.09.2020 04:00:00 - - - - - - - -
18.09.2020 03:00:00 16,9 12,0 5 3 14 7 SSW 0,0
18.09.2020 02:00:00 15,1 11,9 2 1 13 7 WSW 0,0
18.09.2020 01:00:00 15,0 12,5 2 1 8 4 NNW 0,0
18.09.2020 00:00:00 14,4 12,4 2 1 9 5 WNW 0,0
17.09.2020 23:00:00 16,1 12,8 2 1 11 6 N 0,0
17.09.2020 22:00:00 - - - - - - - -
17.09.2020 21:00:00 17,5 14,2 2 1 6 3 SSE 0,0
17.09.2020 20:00:00 20,9 15,9 3 1 8 5 SSW 0,0
17.09.2020 19:00:00 - - - - - - - -
17.09.2020 18:00:00 - - - - - - - -
17.09.2020 17:00:00 26,7 13,4 13 7 23 12 S 0,0
17.09.2020 16:00:00 27,8 16,4 6 3 17 9 NNE 0,0
17.09.2020 15:00:00 27,2 12,0 8 4 26 14 S 0,0
17.09.2020 14:00:00 29,0 14,4 3 2 9 5 ENE 0,0
17.09.2020 13:00:00 27,0 15,7 3 2 9 5 SE 0,0
17.09.2020 12:00:00 24,1 16,1 3 2 13 7 SSE 0,0
17.09.2020 11:00:00 20,8 15,1 2 1 8 5 NE 0,0
17.09.2020 10:00:00 15,8 14,2 2 1 6 3 NNW 0,0
17.09.2020 09:00:00 12,9 12,9 2 1 8 4 S 0,0
17.09.2020 08:00:00 12,0 12,0 3 2 6 3 SW 0,0
17.09.2020 07:00:00 12,1 12,1 2 1 5 3 N 0,0
17.09.2020 06:00:00 12,4 12,2 3 2 6 4 NE 0,0
17.09.2020 05:00:00 12,8 12,5 0 0 5 3 N 0,0
17.09.2020 04:00:00 13,4 13,1 0 0 5 3 N 0,0
17.09.2020 03:00:00 14,1 13,1 2 1 6 3 SW 0,0
17.09.2020 02:00:00 15,5 13,7 2 1 12 7 ESE 0,0
17.09.2020 01:00:00 18,1 14,2 9 5 24 13 SSE 0,0
17.09.2020 00:00:00 19,7 14,5 11 6 29 16 SSW 0,0
16.09.2020 23:00:00 19,5 14,9 10 6 22 12 S 0,0
16.09.2020 22:00:00 19,0 15,3 3 1 13 7 NNE 0,0
16.09.2020 21:00:00 20,0 15,6 2 1 16 9 E 0,0
16.09.2020 20:00:00 21,5 15,6 5 3 21 11 E 0,0
16.09.2020 19:00:00 23,7 16,0 9 5 21 11 S 0,0
16.09.2020 18:00:00 27,3 13,6 10 5 26 14 NNW 0,0
16.09.2020 17:00:00 28,5 14,0 14 7 29 15 NNW 0,0
16.09.2020 16:00:00 28,9 13,6 15 8 33 18 N 0,0
16.09.2020 15:00:00 28,6 14,1 17 9 31 17 N 0,0
16.09.2020 14:00:00 28,0 14,6 13 7 27 15 N 0,0
16.09.2020 13:00:00 26,5 14,3 3 2 9 5 ESE 0,0
16.09.2020 12:00:00 23,4 15,4 4 2 7 4 E 0,0
16.09.2020 11:00:00 20,0 14,8 0 0 6 3 N 0,0
16.09.2020 10:00:00 14,9 14,3 0 0 4 2 N 0,0
16.09.2020 09:00:00 11,2 11,2 0 0 3 1 N 0,0
16.09.2020 08:00:00 10,5 10,5 0 0 3 2 N 0,0
16.09.2020 07:00:00 10,6 10,6 0 0 5 3 N 0,0
16.09.2020 06:00:00 11,4 11,4 0 0 4 2 N 0,0
16.09.2020 05:00:00 11,7 11,7 0 0 4 2 N 0,0
16.09.2020 04:00:00 12,3 12,1 0 0 5 3 N 0,0
16.09.2020 03:00:00 12,6 12,3 2 1 8 4 NNE 0,0
16.09.2020 02:00:00 13,2 12,7 2 1 7 4 E 0,0
16.09.2020 01:00:00 14,7 13,2 2 1 14 7 NNW 0,0
16.09.2020 00:00:00 16,4 13,9 8 4 21 11 SSW 0,0
15.09.2020 23:00:00 16,9 14,0 5 3 19 10 SSW 0,0
15.09.2020 22:00:00 - - - - - - - -
15.09.2020 21:00:00 18,6 15,8 3 1 16 9 ESE 0,0
15.09.2020 20:00:00 20,9 16,1 9 5 20 11 S 0,0
15.09.2020 19:00:00 21,8 16,3 8 4 26 14 SE 0,0
15.09.2020 18:00:00 23,3 16,8 8 4 16 9 SSW 0,0
15.09.2020 17:00:00 26,7 15,1 4 2 17 9 WNW 0,0
15.09.2020 16:00:00 25,4 13,3 4 2 10 6 ENE 0,0
15.09.2020 15:00:00 24,5 14,3 4 2 11 6 NNE 0,0
15.09.2020 14:00:00 21,2 15,5 4 2 8 4 NNW 0,0
15.09.2020 13:00:00 20,2 14,6 2 1 6 3 ENE 0,0
15.09.2020 12:00:00 21,2 14,1 3 2 8 5 N 0,0
15.09.2020 11:00:00 21,0 13,2 4 2 10 5 ESE 0,0
15.09.2020 10:00:00 17,7 13,6 3 2 8 4 ESE 0,0
15.09.2020 09:00:00 14,7 12,4 3 1 9 5 N 0,0
15.09.2020 08:00:00 14,1 11,4 3 1 22 12 NW 0,0
15.09.2020 07:00:00 15,1 11,5 3 2 10 5 WNW 0,0
15.09.2020 06:00:00 15,5 11,1 3 1 24 13 ENE 0,0
15.09.2020 05:00:00 15,9 10,9 3 2 24 13 WNW 0,0
15.09.2020 04:00:00 15,9 10,4 4 2 19 10 SSW 0,0
15.09.2020 03:00:00 15,8 11,0 3 1 21 11 WNW 0,0
15.09.2020 02:00:00 16,0 11,0 2 1 14 7 NNE 0,0
15.09.2020 01:00:00 16,3 11,2 3 1 26 14 SSE 0,0
15.09.2020 00:00:00 16,2 11,8 3 1 22 12 NW 0,0
14.09.2020 23:00:00 16,8 11,9 3 2 11 6 S 0,0
14.09.2020 22:00:00 17,5 12,8 3 1 9 5 SSE 0,0
14.09.2020 21:00:00 20,2 13,4 6 4 19 10 S 0,0
14.09.2020 20:00:00 20,5 13,5 3 2 9 5 ESE 0,0

tt = Température de l'air
td = dewpoint
ff = Vitesse du vent
fx = gusts
dd = Direction du vent
rr = Quantités de précipitations

stations d'obs. à proximité